Time;durP1;ratioP1;P1;durP2;ratioP2;P2;SDS_P1;SDS_P2;PMS_P1;PMS_P2;Temp;Humidity;BMP_temperature;BMP_pressure;BME280_temperature;BME280_humidity;BME280_pressure;Samples;Min_cycle;Max_cycle;Signal;HPM_P1;HPM_P2
2020/12/25 00:01:31;;;;;;;;;;;19.80;93.90;;;;;;5095433;28;19920;-80
2020/12/25 00:03:58;;;;;;;;;;;19.80;93.80;;;;;;5114546;28;19912;-81
2020/12/25 00:06:35;;;;;;;;;;;19.90;93.70;;;;;;5113942;28;20015;-81
2020/12/25 00:09:04;;;;;;;;;;;19.90;93.20;;;;;;5113214;28;19987;-80
2020/12/25 00:11:31;;;;;;;;;;;19.90;93.10;;;;;;5112846;28;20052;-84
2020/12/25 00:13:58;;;;;;;;;;;19.70;93.10;;;;;;5113812;28;19951;-84
2020/12/25 00:16:28;;;;;;;;;;;19.80;93.90;;;;;;5075984;28;19908;-79
2020/12/25 00:18:55;;;;;;;;;;;19.70;94.40;;;;;;5093652;28;19916;-78
2020/12/25 00:21:21;;;;;;;;;;;19.50;95.60;;;;;;5109442;28;20259;-80
2020/12/25 00:23:48;;;;;;;;;;;19.30;96.80;;;;;;5113772;28;19911;-79
2020/12/25 00:26:24;;;;;;;;;;;19.20;97.70;;;;;;5114136;28;19912;-81
2020/12/25 00:28:52;;;;;;;;;;;19.00;98.20;;;;;;5113824;28;19911;-80
2020/12/25 00:31:25;;;;;;;;;;;18.80;97.80;;;;;;5113745;28;19911;-81
2020/12/25 00:33:51;;;;;;;;;;;18.80;98.90;;;;;;5113247;28;20362;-80
2020/12/25 00:36:31;;;;;;;;;;;18.60;98.10;;;;;;5114568;28;19908;-81
2020/12/25 00:38:59;;;;;;;;;;;18.60;98.80;;;;;;5114552;28;19919;-79
2020/12/25 00:41:26;;;;;;;;;;;18.50;98.40;;;;;;5113994;28;19912;-78
2020/12/25 00:43:53;;;;;;;;;;;18.50;98.50;;;;;;5096449;28;19911;-80
2020/12/25 00:46:20;;;;;;;;;;;18.60;98.50;;;;;;5113478;28;19915;-80
2020/12/25 00:48:46;;;;;;;;;;;18.60;98.70;;;;;;5113504;28;19931;-80
2020/12/25 00:51:14;;;;;;;;;;;18.60;98.60;;;;;;5113044;28;19915;-79
2020/12/25 00:53:41;;;;;;;;;;;18.70;98.30;;;;;;5113378;28;19912;-79
2020/12/25 00:56:09;;;;;;;;;;;18.80;97.70;;;;;;5114424;28;20315;-80
2020/12/25 00:58:35;;;;;;;;;;;18.80;97.70;;;;;;5114151;28;19920;-80
2020/12/25 01:01:03;;;;;;;;;;;18.90;97.90;;;;;;5113919;28;19918;-80
2020/12/25 01:03:29;;;;;;;;;;;19.00;97.90;;;;;;5113835;28;20311;-81
2020/12/25 01:05:56;;;;;;;;;;;19.00;97.10;;;;;;5095083;28;19924;-78
2020/12/25 01:08:23;;;;;;;;;;;19.00;97.70;;;;;;5114027;28;19922;-80
2020/12/25 01:10:49;;;;;;;;;;;19.10;96.60;;;;;;5113324;28;19911;-80
2020/12/25 01:13:16;;;;;;;;;;;19.10;97.00;;;;;;5114016;28;20243;-80
2020/12/25 01:15:43;;;;;;;;;;;19.20;96.90;;;;;;5113959;28;19908;-79
2020/12/25 01:18:10;;;;;;;;;;;19.20;96.60;;;;;;5113391;28;19992;-80
2020/12/25 01:20:37;;;;;;;;;;;19.30;96.30;;;;;;5113474;28;19919;-79
2020/12/25 01:23:04;;;;;;;;;;;19.30;96.30;;;;;;5113398;28;19912;-78
2020/12/25 01:25:30;;;;;;;;;;;19.40;95.50;;;;;;5099163;28;19961;-79
2020/12/25 01:27:57;;;;;;;;;;;19.40;95.00;;;;;;5102723;28;19907;-78
2020/12/25 01:30:24;;;;;;;;;;;19.50;95.20;;;;;;5112863;28;19919;-80
2020/12/25 01:32:51;;;;;;;;;;;19.50;95.20;;;;;;5112728;28;20266;-80
2020/12/25 01:35:17;;;;;;;;;;;19.50;94.60;;;;;;5112681;28;20327;-79
2020/12/25 01:37:44;;;;;;;;;;;19.50;95.20;;;;;;5112921;28;19923;-82
2020/12/25 01:40:11;;;;;;;;;;;19.50;94.70;;;;;;5112740;28;19912;-80
2020/12/25 01:42:37;;;;;;;;;;;19.60;94.50;;;;;;5112830;28;20374;-81
2020/12/25 01:45:05;;;;;;;;;;;19.50;94.40;;;;;;5112773;28;19959;-79
2020/12/25 01:47:31;;;;;;;;;;;19.50;94.20;;;;;;5111533;28;19928;-81
2020/12/25 01:49:59;;;;;;;;;;;19.50;94.10;;;;;;5112306;28;20276;-82
2020/12/25 01:52:25;;;;;;;;;;;19.40;94.10;;;;;;5112718;28;20332;-82
2020/12/25 01:54:53;;;;;;;;;;;19.40;94.30;;;;;;5112891;28;19958;-81
2020/12/25 01:57:21;;;;;;;;;;;19.40;94.30;;;;;;5112884;28;20002;-81
2020/12/25 01:59:48;;;;;;;;;;;19.40;94.20;;;;;;5113613;28;19919;-82
2020/12/25 02:02:15;;;;;;;;;;;19.40;94.00;;;;;;5113072;28;19955;-82
2020/12/25 02:04:41;;;;;;;;;;;19.40;94.00;;;;;;5118042;28;19918;-81
2020/12/25 02:07:08;;;;;;;;;;;19.40;93.50;;;;;;5133810;28;19919;-81
2020/12/25 02:09:35;;;;;;;;;;;19.40;93.50;;;;;;5134086;28;19911;-82
2020/12/25 02:12:02;;;;;;;;;;;19.40;93.60;;;;;;5134017;28;19957;-82
2020/12/25 02:14:29;;;;;;;;;;;19.50;93.40;;;;;;5133663;28;20003;-82
2020/12/25 02:16:55;;;;;;;;;;;19.50;92.90;;;;;;5133122;28;19928;-80
2020/12/25 02:19:22;;;;;;;;;;;19.50;92.80;;;;;;5131819;28;20035;-81
2020/12/25 02:21:48;;;;;;;;;;;19.60;93.20;;;;;;5132341;27;19919;-82
2020/12/25 02:24:15;;;;;;;;;;;19.80;93.00;;;;;;5126211;27;19912;-78
2020/12/25 02:26:42;;;;;;;;;;;19.90;92.20;;;;;;5136853;27;19908;-82
2020/12/25 02:29:09;;;;;;;;;;;20.00;92.50;;;;;;5136508;27;19918;-80
2020/12/25 02:31:35;;;;;;;;;;;20.10;91.90;;;;;;5136268;27;19982;-78
2020/12/25 02:34:02;;;;;;;;;;;20.10;91.30;;;;;;5136995;27;20000;-79
2020/12/25 02:36:29;;;;;;;;;;;20.00;91.50;;;;;;5136494;27;19912;-80
2020/12/25 02:38:56;;;;;;;;;;;20.00;91.60;;;;;;5136254;27;19927;-79
2020/12/25 02:41:22;;;;;;;;;;;20.00;91.30;;;;;;5136446;27;19914;-79
2020/12/25 02:43:49;;;;;;;;;;;20.10;91.70;;;;;;5135121;27;19988;-79
2020/12/25 02:46:19;;;;;;;;;;;20.20;91.30;;;;;;5135578;27;19959;-78
2020/12/25 02:48:45;;;;;;;;;;;20.20;91.20;;;;;;5136694;27;19991;-78
2020/12/25 02:51:12;;;;;;;;;;;20.20;91.00;;;;;;5136548;27;20374;-79
2020/12/25 02:53:39;;;;;;;;;;;20.20;91.30;;;;;;5128308;27;19907;-80
2020/12/25 02:56:05;;;;;;;;;;;20.20;91.40;;;;;;5129545;27;19916;-79
2020/12/25 02:58:32;;;;;;;;;;;20.30;90.60;;;;;;5136003;27;20285;-79
2020/12/25 03:00:59;;;;;;;;;;;20.20;90.80;;;;;;5135461;27;19955;-79
2020/12/25 03:03:25;;;;;;;;;;;20.20;91.00;;;;;;5135449;27;19918;-76
2020/12/25 03:05:52;;;;;;;;;;;20.30;90.80;;;;;;5134277;27;19919;-79
2020/12/25 03:08:18;;;;;;;;;;;20.40;90.80;;;;;;5134578;27;20404;-79
2020/12/25 03:10:45;;;;;;;;;;;20.50;90.70;;;;;;5134873;27;19955;-79
2020/12/25 03:13:12;;;;;;;;;;;20.50;90.50;;;;;;5134545;27;19915;-78
2020/12/25 03:15:38;;;;;;;;;;;20.50;90.40;;;;;;5134294;27;20293;-77
2020/12/25 03:18:05;;;;;;;;;;;20.40;90.40;;;;;;5134418;27;19979;-82
2020/12/25 03:20:31;;;;;;;;;;;20.50;90.00;;;;;;5136764;27;19912;-78
2020/12/25 03:22:58;;;;;;;;;;;20.50;90.10;;;;;;5136792;27;19998;-77
2020/12/25 03:25:25;;;;;;;;;;;20.50;90.20;;;;;;5135866;27;20426;-76
2020/12/25 03:27:51;;;;;;;;;;;20.50;88.60;;;;;;5117519;27;19907;-79
2020/12/25 03:30:18;;;;;;;;;;;20.50;89.80;;;;;;5136630;27;19982;-79
2020/12/25 03:32:46;;;;;;;;;;;20.50;89.40;;;;;;5135812;27;20006;-79
2020/12/25 03:35:13;;;;;;;;;;;20.50;89.50;;;;;;5117745;27;19908;-81
2020/12/25 03:37:39;;;;;;;;;;;20.60;88.90;;;;;;5135799;27;19919;-77
2020/12/25 03:40:06;;;;;;;;;;;20.60;89.90;;;;;;5136342;27;19911;-77
2020/12/25 03:42:33;;;;;;;;;;;20.70;88.80;;;;;;5135966;27;19907;-78
2020/12/25 03:44:59;;;;;;;;;;;20.70;88.70;;;;;;5136120;27;19907;-79
2020/12/25 03:47:26;;;;;;;;;;;20.80;87.40;;;;;;5135981;27;19907;-79
2020/12/25 03:49:53;;;;;;;;;;;20.70;87.20;;;;;;5123999;27;19908;-78
2020/12/25 03:52:20;;;;;;;;;;;20.60;87.30;;;;;;5115446;28;19954;-81
2020/12/25 03:54:50;;;;;;;;;;;20.60;88.70;;;;;;5114966;28;19912;-80
2020/12/25 03:57:18;;;;;;;;;;;20.70;88.50;;;;;;5115333;28;19915;-80
2020/12/25 03:59:44;;;;;;;;;;;20.60;88.50;;;;;;5114680;28;20227;-80
2020/12/25 04:02:11;;;;;;;;;;;20.60;88.80;;;;;;5115220;28;19908;-78
2020/12/25 04:04:38;;;;;;;;;;;20.60;89.20;;;;;;5115014;28;19918;-81
2020/12/25 04:07:04;;;;;;;;;;;20.60;88.90;;;;;;5096904;28;20379;-80
2020/12/25 04:09:31;;;;;;;;;;;20.50;89.00;;;;;;5114209;28;19908;-80
2020/12/25 04:11:58;;;;;;;;;;;20.50;89.10;;;;;;5115232;28;19960;-77
2020/12/25 04:14:25;;;;;;;;;;;20.50;89.30;;;;;;5097004;28;19914;-81
2020/12/25 04:16:51;;;;;;;;;;;20.40;89.50;;;;;;5114992;28;19915;-77
2020/12/25 04:19:18;;;;;;;;;;;20.40;90.00;;;;;;5095897;28;20263;-80
2020/12/25 04:21:45;;;;;;;;;;;20.40;90.10;;;;;;5114866;28;20240;-81
2020/12/25 04:24:11;;;;;;;;;;;20.40;88.80;;;;;;5114956;28;19935;-81
2020/12/25 04:26:38;;;;;;;;;;;20.40;89.50;;;;;;5114872;28;19914;-78
2020/12/25 04:29:05;;;;;;;;;;;20.50;89.40;;;;;;5114467;28;19908;-78
2020/12/25 04:31:31;;;;;;;;;;;20.60;88.80;;;;;;5114495;28;20044;-80
2020/12/25 04:33:58;;;;;;;;;;;20.50;88.40;;;;;;5114711;28;19954;-79
2020/12/25 04:36:24;;;;;;;;;;;20.60;88.70;;;;;;5114698;28;19907;-81
2020/12/25 04:38:51;;;;;;;;;;;20.70;88.70;;;;;;5114043;28;19970;-80
2020/12/25 04:41:18;;;;;;;;;;;20.60;87.90;;;;;;5114342;28;20270;-78
2020/12/25 04:43:45;;;;;;;;;;;20.60;87.50;;;;;;5113955;28;19908;-79
2020/12/25 04:46:12;;;;;;;;;;;20.70;87.80;;;;;;5113691;28;19963;-76
2020/12/25 04:48:38;;;;;;;;;;;20.60;88.60;;;;;;5123174;28;19954;-77
2020/12/25 04:51:06;;;;;;;;;;;20.60;87.10;;;;;;5117867;28;19915;-76
2020/12/25 04:53:33;;;;;;;;;;;20.60;88.10;;;;;;5114034;28;20014;-80
2020/12/25 04:55:59;;;;;;;;;;;20.60;88.00;;;;;;5114444;28;19912;-79
2020/12/25 04:58:26;;;;;;;;;;;20.60;88.90;;;;;;5095831;28;20259;-76
2020/12/25 05:01:06;;;;;;;;;;;20.70;88.60;;;;;;5113689;28;19911;-79
2020/12/25 05:03:36;;;;;;;;;;;20.70;88.20;;;;;;5113917;28;19914;-82
2020/12/25 05:06:06;;;;;;;;;;;20.70;87.40;;;;;;5114004;28;19924;-77
2020/12/25 05:08:36;;;;;;;;;;;20.60;87.90;;;;;;5114354;28;19915;-77
2020/12/25 05:11:04;;;;;;;;;;;20.40;88.10;;;;;;5113774;28;19981;-79
2020/12/25 05:13:31;;;;;;;;;;;20.40;88.60;;;;;;5113907;28;19956;-77
2020/12/25 05:15:58;;;;;;;;;;;20.30;89.10;;;;;;5113820;28;20385;-76
2020/12/25 05:18:27;;;;;;;;;;;20.30;89.60;;;;;;5113856;28;19920;-77
2020/12/25 05:20:54;;;;;;;;;;;20.30;89.60;;;;;;5121594;28;19912;-76
2020/12/25 05:23:29;;;;;;;;;;;20.30;89.70;;;;;;5115491;28;20003;-77
2020/12/25 05:25:57;;;;;;;;;;;20.20;90.00;;;;;;5095542;28;20357;-79
2020/12/25 05:28:26;;;;;;;;;;;20.10;90.30;;;;;;5113521;28;19915;-77
2020/12/25 05:30:53;;;;;;;;;;;20.00;90.60;;;;;;5112799;28;19911;-77
2020/12/25 05:33:21;;;;;;;;;;;20.00;90.70;;;;;;5113422;28;19960;-78
2020/12/25 05:35:52;;;;;;;;;;;20.00;90.90;;;;;;5113457;28;19912;-80
2020/12/25 05:38:18;;;;;;;;;;;20.00;90.50;;;;;;5113734;28;19918;-81
2020/12/25 05:40:45;;;;;;;;;;;20.00;90.20;;;;;;5113520;28;19934;-78
2020/12/25 05:43:16;;;;;;;;;;;19.90;90.10;;;;;;5115567;28;19912;-79
2020/12/25 05:45:43;;;;;;;;;;;19.90;90.40;;;;;;5101816;28;19916;-81
2020/12/25 05:48:10;;;;;;;;;;;20.00;90.10;;;;;;5106897;28;19913;-77
2020/12/25 05:50:37;;;;;;;;;;;19.90;90.00;;;;;;5110211;28;20014;-79
2020/12/25 05:53:05;;;;;;;;;;;19.90;90.50;;;;;;5112109;28;19916;-79
2020/12/25 05:55:32;;;;;;;;;;;19.90;90.20;;;;;;5109847;28;20057;-80
2020/12/25 05:58:00;;;;;;;;;;;19.90;90.10;;;;;;5109100;28;21577;-79
2020/12/25 06:00:28;;;;;;;;;;;19.90;90.00;;;;;;5091038;28;19916;-80
2020/12/25 06:02:55;;;;;;;;;;;19.90;90.00;;;;;;5109470;28;19923;-78
2020/12/25 06:05:23;;;;;;;;;;;19.90;90.20;;;;;;5119973;28;19924;-77
2020/12/25 06:07:54;;;;;;;;;;;19.90;90.40;;;;;;5128632;28;20005;-77
2020/12/25 06:10:21;;;;;;;;;;;19.80;90.30;;;;;;5129665;28;19911;-76
2020/12/25 06:12:48;;;;;;;;;;;19.80;90.50;;;;;;5130712;28;19961;-79
2020/12/25 06:15:27;;;;;;;;;;;19.80;90.40;;;;;;5130852;28;19943;-77
2020/12/25 06:18:06;;;;;;;;;;;19.80;90.30;;;;;;5111663;28;19937;-77
2020/12/25 06:20:35;;;;;;;;;;;19.70;90.40;;;;;;5131056;28;19911;-77
2020/12/25 06:23:04;;;;;;;;;;;19.70;90.40;;;;;;5113595;28;20241;-78
2020/12/25 06:25:30;;;;;;;;;;;19.70;90.50;;;;;;5131067;28;19916;-78
2020/12/25 06:27:59;;;;;;;;;;;19.70;90.50;;;;;;5130345;28;19912;-77
2020/12/25 06:30:27;;;;;;;;;;;19.70;90.40;;;;;;5130336;28;20344;-78
2020/12/25 06:32:54;;;;;;;;;;;19.60;90.70;;;;;;5130338;28;19915;-78
2020/12/25 06:35:31;;;;;;;;;;;19.70;90.40;;;;;;5131031;28;19950;-78
2020/12/25 06:37:58;;;;;;;;;;;19.70;90.60;;;;;;5130902;27;19926;-79
2020/12/25 06:40:25;;;;;;;;;;;19.70;90.70;;;;;;5132468;28;19955;-78
2020/12/25 06:42:55;;;;;;;;;;;19.70;90.70;;;;;;5142432;28;19911;-77
2020/12/25 06:45:31;;;;;;;;;;;19.70;90.80;;;;;;5134424;28;19965;-79
2020/12/25 06:48:30;;;;;;;;;;;19.70;90.90;;;;;;5127240;28;20252;-78
2020/12/25 06:50:58;;;;;;;;;;;19.70;90.90;;;;;;5091392;28;19911;-77
2020/12/25 06:53:42;;;;;;;;;;;19.80;90.80;;;;;;5130229;28;19912;-76
2020/12/25 06:56:10;;;;;;;;;;;19.70;90.40;;;;;;5129815;28;19912;-77
2020/12/25 06:58:46;;;;;;;;;;;19.70;90.70;;;;;;5111804;28;19923;-79
2020/12/25 07:01:14;;;;;;;;;;;19.70;90.70;;;;;;5130301;28;19988;-79
2020/12/25 07:03:41;;;;;;;;;;;19.70;90.70;;;;;;5130016;28;19917;-79
2020/12/25 07:06:12;;;;;;;;;;;19.70;90.90;;;;;;5127260;28;20099;-79
2020/12/25 07:08:56;;;;;;;;;;;19.70;90.90;;;;;;5121520;27;19918;-77
2020/12/25 07:11:23;;;;;;;;;;;19.70;90.80;;;;;;5093333;27;19969;-79
2020/12/25 07:13:50;;;;;;;;;;;19.70;90.60;;;;;;5105048;27;20085;-78
2020/12/25 07:16:16;;;;;;;;;;;19.80;90.80;;;;;;5128333;27;20610;-79
2020/12/25 07:18:43;;;;;;;;;;;19.80;91.00;;;;;;5132187;27;19923;-79
2020/12/25 07:21:09;;;;;;;;;;;19.80;90.50;;;;;;5122123;27;19956;-78
2020/12/25 07:23:43;;;;;;;;;;;19.80;90.80;;;;;;5116560;27;20033;-79
2020/12/25 07:26:09;;;;;;;;;;;19.80;90.70;;;;;;5131999;27;20753;-78
2020/12/25 07:28:37;;;;;;;;;;;19.70;90.90;;;;;;5130106;27;19915;-78
2020/12/25 07:31:03;;;;;;;;;;;19.70;91.20;;;;;;5131436;27;19964;-78
2020/12/25 07:33:30;;;;;;;;;;;19.60;92.00;;;;;;5134559;27;20068;-79
2020/12/25 07:35:58;;;;;;;;;;;19.50;92.10;;;;;;5131523;27;19915;-79
2020/12/25 07:38:25;;;;;;;;;;;19.50;92.90;;;;;;5116874;27;19920;-79
2020/12/25 07:40:52;;;;;;;;;;;19.40;93.30;;;;;;5112859;28;19991;-79
2020/12/25 07:43:18;;;;;;;;;;;19.40;93.70;;;;;;5113125;27;19915;-77
2020/12/25 07:45:47;;;;;;;;;;;19.20;93.80;;;;;;5113874;27;20203;-77
2020/12/25 07:48:14;;;;;;;;;;;19.10;94.00;;;;;;5112573;28;19916;-78
2020/12/25 07:50:44;;;;;;;;;;;19.10;94.60;;;;;;5112910;27;19955;-79
2020/12/25 07:53:17;;;;;;;;;;;19.00;94.90;;;;;;5133476;27;19998;-79
2020/12/25 07:55:45;;;;;;;;;;;19.00;94.50;;;;;;5132016;27;19934;-84
2020/12/25 07:58:19;;;;;;;;;;;18.90;94.80;;;;;;5124774;27;20211;-78
2020/12/25 08:00:45;;;;;;;;;;;19.00;94.10;;;;;;5133262;27;19954;-80
2020/12/25 08:03:13;;;;;;;;;;;19.00;93.90;;;;;;5132881;27;19998;-81
2020/12/25 08:05:39;;;;;;;;;;;19.00;94.10;;;;;;5132892;27;20276;-78
2020/12/25 08:08:06;;;;;;;;;;;18.90;94.20;;;;;;5125997;27;19911;-78
2020/12/25 08:10:36;;;;;;;;;;;18.90;94.10;;;;;;5119265;27;19912;-78
2020/12/25 08:13:04;;;;;;;;;;;19.00;94.00;;;;;;5118266;27;19918;-78
2020/12/25 08:15:33;;;;;;;;;;;19.10;93.90;;;;;;5113632;27;20065;-78
2020/12/25 08:18:00;;;;;;;;;;;19.10;93.60;;;;;;5116972;27;19938;-79
2020/12/25 08:20:26;;;;;;;;;;;19.10;93.60;;;;;;5115800;28;19916;-78
2020/12/25 08:23:06;;;;;;;;;;;19.10;93.10;;;;;;5120847;27;21673;-78
2020/12/25 08:25:33;;;;;;;;;;;19.10;92.90;;;;;;5126494;27;19950;-80
2020/12/25 08:28:00;;;;;;;;;;;19.10;92.80;;;;;;5116013;27;20426;-77
2020/12/25 08:30:27;;;;;;;;;;;19.20;93.00;;;;;;5114934;27;19912;-78
2020/12/25 08:32:57;;;;;;;;;;;19.20;92.60;;;;;;5124736;27;19918;-80
2020/12/25 08:35:26;;;;;;;;;;;19.20;92.50;;;;;;5131396;27;20274;-77
2020/12/25 08:38:00;;;;;;;;;;;19.20;92.40;;;;;;5125814;27;19912;-78
2020/12/25 08:40:34;;;;;;;;;;;19.20;92.10;;;;;;5132129;27;19954;-78
2020/12/25 08:43:06;;;;;;;;;;;19.20;92.30;;;;;;5130778;27;19924;-78
2020/12/25 08:45:33;;;;;;;;;;;19.30;92.30;;;;;;5124168;27;19911;-78
2020/12/25 08:48:17;;;;;;;;;;;19.30;92.30;;;;;;5127898;27;19938;-78
2020/12/25 08:50:44;;;;;;;;;;;19.30;92.30;;;;;;5129577;27;20443;-78
2020/12/25 08:53:11;;;;;;;;;;;19.20;92.30;;;;;;5123148;27;20381;-78
2020/12/25 08:55:37;;;;;;;;;;;19.30;92.50;;;;;;5123544;27;19919;-77
2020/12/25 08:58:05;;;;;;;;;;;19.20;92.50;;;;;;5120732;27;19915;-77
2020/12/25 09:00:32;;;;;;;;;;;19.20;92.70;;;;;;5134349;27;19918;-77
2020/12/25 09:02:59;;;;;;;;;;;19.20;92.70;;;;;;5134122;27;19907;-77
2020/12/25 09:05:25;;;;;;;;;;;19.20;92.80;;;;;;5113766;27;19920;-81
2020/12/25 09:07:52;;;;;;;;;;;19.20;92.80;;;;;;5112681;28;19912;-79
2020/12/25 09:10:19;;;;;;;;;;;19.20;92.70;;;;;;5113074;28;19919;-81
2020/12/25 09:12:46;;;;;;;;;;;19.20;92.90;;;;;;5112955;28;19973;-80
2020/12/25 09:15:12;;;;;;;;;;;19.10;92.80;;;;;;5112780;28;19916;-78
2020/12/25 09:17:39;;;;;;;;;;;19.10;92.90;;;;;;5113095;28;19912;-79
2020/12/25 09:20:05;;;;;;;;;;;19.10;93.30;;;;;;5112431;28;19916;-78
2020/12/25 09:22:32;;;;;;;;;;;19.10;93.20;;;;;;5112321;28;19947;-81
2020/12/25 09:24:59;;;;;;;;;;;19.20;93.30;;;;;;5090182;28;20404;-78
2020/12/25 09:27:26;;;;;;;;;;;19.10;93.40;;;;;;5111316;28;19911;-79
2020/12/25 09:29:52;;;;;;;;;;;19.10;93.50;;;;;;5111890;28;19956;-79
2020/12/25 09:32:19;;;;;;;;;;;19.20;93.40;;;;;;5111539;28;19916;-79
2020/12/25 09:34:46;;;;;;;;;;;19.10;93.40;;;;;;5112089;28;20378;-80
2020/12/25 09:37:13;;;;;;;;;;;19.10;93.60;;;;;;5112371;28;20361;-79
2020/12/25 09:39:39;;;;;;;;;;;19.10;93.70;;;;;;5112662;28;20377;-80
2020/12/25 09:42:06;;;;;;;;;;;19.00;93.70;;;;;;5112190;28;19915;-79
2020/12/25 09:44:33;;;;;;;;;;;19.10;93.70;;;;;;5111431;28;20007;-79
2020/12/25 09:46:59;;;;;;;;;;;19.00;93.80;;;;;;5112240;28;19987;-79
2020/12/25 09:49:26;;;;;;;;;;;19.00;93.80;;;;;;5112102;28;20476;-79
2020/12/25 09:51:52;;;;;;;;;;;19.00;94.00;;;;;;5112939;28;19908;-79
2020/12/25 09:54:19;;;;;;;;;;;19.00;93.90;;;;;;5111947;28;20010;-78
2020/12/25 09:56:48;;;;;;;;;;;19.10;93.90;;;;;;5110986;28;19919;-79
2020/12/25 09:59:15;;;;;;;;;;;19.10;93.90;;;;;;5111876;28;19966;-79
2020/12/25 10:01:41;;;;;;;;;;;19.10;93.80;;;;;;5112163;28;19916;-79
2020/12/25 10:04:08;;;;;;;;;;;19.10;93.80;;;;;;5107538;28;20064;-79
2020/12/25 10:06:35;;;;;;;;;;;19.10;93.80;;;;;;5116888;27;19961;-79
2020/12/25 10:09:01;;;;;;;;;;;19.10;93.80;;;;;;5107294;28;19919;-79
2020/12/25 10:11:28;;;;;;;;;;;19.10;93.60;;;;;;5101963;28;19912;-79
2020/12/25 10:13:55;;;;;;;;;;;19.20;93.70;;;;;;5112552;28;20308;-80
2020/12/25 10:16:21;;;;;;;;;;;19.20;93.40;;;;;;5111988;27;19917;-79
2020/12/25 10:18:48;;;;;;;;;;;19.10;93.70;;;;;;5111907;28;19941;-79
2020/12/25 10:21:18;;;;;;;;;;;19.10;93.30;;;;;;5112626;28;19992;-79
2020/12/25 10:23:45;;;;;;;;;;;19.10;93.50;;;;;;5112645;28;19915;-80
2020/12/25 10:26:12;;;;;;;;;;;19.10;93.50;;;;;;5114334;28;19918;-80
2020/12/25 10:28:39;;;;;;;;;;;19.10;93.40;;;;;;5111727;28;19976;-79
2020/12/25 10:31:06;;;;;;;;;;;19.10;93.20;;;;;;5112407;28;19977;-79
2020/12/25 10:33:32;;;;;;;;;;;19.10;93.20;;;;;;5111410;28;20326;-79
2020/12/25 10:36:00;;;;;;;;;;;19.20;93.30;;;;;;5116087;28;19947;-79
2020/12/25 10:38:26;;;;;;;;;;;19.10;93.10;;;;;;5112395;28;19919;-79
2020/12/25 10:40:53;;;;;;;;;;;19.10;93.30;;;;;;5112482;28;19916;-79
2020/12/25 10:43:20;;;;;;;;;;;19.20;93.10;;;;;;5113930;28;20118;-79
2020/12/25 10:45:49;;;;;;;;;;;19.20;93.10;;;;;;5116390;28;19908;-78
2020/12/25 10:48:16;;;;;;;;;;;19.10;93.40;;;;;;5125256;27;20258;-79
2020/12/25 10:50:43;;;;;;;;;;;19.20;93.10;;;;;;5122915;27;20064;-79
2020/12/25 10:53:09;;;;;;;;;;;19.20;93.10;;;;;;5129320;27;20010;-79
2020/12/25 10:55:37;;;;;;;;;;;19.20;93.00;;;;;;5121952;27;19915;-79
2020/12/25 10:58:04;;;;;;;;;;;19.10;93.20;;;;;;5123668;27;19963;-79
2020/12/25 11:00:31;;;;;;;;;;;19.10;93.70;;;;;;5116106;27;19908;-78
2020/12/25 11:02:58;;;;;;;;;;;19.00;94.60;;;;;;5121718;27;19911;-79
2020/12/25 11:05:25;;;;;;;;;;;18.80;95.00;;;;;;5113129;27;20068;-80
2020/12/25 11:07:54;;;;;;;;;;;18.70;95.40;;;;;;5114128;28;19919;-78
2020/12/25 11:10:21;;;;;;;;;;;18.60;95.60;;;;;;5115950;27;19916;-79
2020/12/25 11:12:47;;;;;;;;;;;18.50;95.50;;;;;;5114634;28;19972;-79
2020/12/25 11:15:14;;;;;;;;;;;18.60;95.50;;;;;;5114201;28;19912;-79
2020/12/25 11:17:40;;;;;;;;;;;18.60;95.10;;;;;;5115126;27;20282;-79
2020/12/25 11:20:07;;;;;;;;;;;18.60;94.90;;;;;;5114031;28;19927;-79
2020/12/25 11:22:34;;;;;;;;;;;18.60;94.90;;;;;;5115329;28;20430;-79
2020/12/25 11:25:00;;;;;;;;;;;18.70;94.80;;;;;;5115406;28;19950;-79
2020/12/25 11:27:27;;;;;;;;;;;18.70;94.60;;;;;;5114979;28;19912;-78
2020/12/25 11:29:53;;;;;;;;;;;18.70;94.40;;;;;;5115906;28;19912;-78
2020/12/25 11:32:20;;;;;;;;;;;18.80;94.60;;;;;;5116446;28;19912;-79
2020/12/25 11:34:47;;;;;;;;;;;18.80;94.40;;;;;;5116281;28;19926;-78
2020/12/25 11:37:13;;;;;;;;;;;18.90;94.30;;;;;;5097215;28;19907;-78
2020/12/25 11:39:40;;;;;;;;;;;18.80;94.20;;;;;;5114817;28;20052;-79
2020/12/25 11:42:07;;;;;;;;;;;18.80;94.20;;;;;;5115257;28;20003;-79
2020/12/25 11:44:33;;;;;;;;;;;18.80;94.20;;;;;;5115811;28;19911;-79
2020/12/25 11:47:00;;;;;;;;;;;18.90;94.20;;;;;;5114811;28;20015;-78
2020/12/25 11:49:27;;;;;;;;;;;18.90;94.20;;;;;;5115322;28;19912;-78
2020/12/25 11:51:56;;;;;;;;;;;18.90;94.50;;;;;;5115502;28;19968;-79
2020/12/25 11:54:22;;;;;;;;;;;19.10;94.10;;;;;;5114818;28;21384;-79
2020/12/25 11:56:51;;;;;;;;;;;19.10;94.00;;;;;;5115125;28;19912;-78
2020/12/25 11:59:18;;;;;;;;;;;19.10;93.90;;;;;;5113897;28;19927;-77
2020/12/25 12:01:45;;;;;;;;;;;19.10;95.40;;;;;;5114541;28;19920;-77
2020/12/25 12:04:12;;;;;;;;;;;18.80;97.00;;;;;;5114959;27;19952;-78
2020/12/25 12:06:38;;;;;;;;;;;18.70;97.60;;;;;;5117674;27;19967;-78
2020/12/25 12:09:05;;;;;;;;;;;18.60;98.00;;;;;;5104666;27;19920;-76
2020/12/25 12:11:32;;;;;;;;;;;18.50;98.50;;;;;;5125017;27;20373;-77
2020/12/25 12:13:58;;;;;;;;;;;18.50;98.90;;;;;;5125995;27;20006;-77
2020/12/25 12:16:25;;;;;;;;;;;18.30;98.90;;;;;;5121009;27;19912;-77
2020/12/25 12:18:52;;;;;;;;;;;18.20;99.70;;;;;;5113837;28;19916;-77
2020/12/25 12:21:19;;;;;;;;;;;18.10;99.90;;;;;;5125874;27;19942;-77
2020/12/25 12:23:46;;;;;;;;;;;18.20;99.90;;;;;;5134538;27;19960;-78
2020/12/25 12:26:13;;;;;;;;;;;18.10;99.90;;;;;;5134804;27;20264;-77
2020/12/25 12:28:39;;;;;;;;;;;18.10;99.90;;;;;;5116686;27;20296;-78
2020/12/25 12:31:06;;;;;;;;;;;18.10;99.90;;;;;;5116693;27;19916;-77
2020/12/25 12:33:33;;;;;;;;;;;18.10;99.90;;;;;;5113238;27;19912;-76
2020/12/25 12:35:59;;;;;;;;;;;18.10;99.90;;;;;;5114095;28;19912;-76
2020/12/25 12:38:26;;;;;;;;;;;18.20;99.90;;;;;;5127880;27;20021;-78
2020/12/25 12:40:53;;;;;;;;;;;18.20;99.90;;;;;;5120930;27;19912;-77
2020/12/25 12:43:19;;;;;;;;;;;18.00;99.90;;;;;;5113547;28;19908;-78
2020/12/25 12:45:46;;;;;;;;;;;17.90;99.90;;;;;;5114019;28;19914;-77
2020/12/25 12:48:13;;;;;;;;;;;18.00;99.90;;;;;;5115353;27;19911;-78
2020/12/25 12:50:40;;;;;;;;;;;17.90;99.90;;;;;;5123880;27;19966;-80
2020/12/25 12:53:07;;;;;;;;;;;17.80;99.90;;;;;;5132927;27;19911;-77
2020/12/25 12:55:34;;;;;;;;;;;17.80;99.90;;;;;;5134115;27;20425;-77
2020/12/25 12:58:00;;;;;;;;;;;17.70;99.90;;;;;;5123918;27;19999;-78
2020/12/25 13:00:27;;;;;;;;;;;17.70;99.90;;;;;;5122936;27;19922;-78
2020/12/25 13:02:53;;;;;;;;;;;17.60;99.90;;;;;;5124485;27;19919;-78
2020/12/25 13:05:20;;;;;;;;;;;17.70;99.90;;;;;;5122592;27;20393;-77
2020/12/25 13:07:47;;;;;;;;;;;17.60;99.90;;;;;;5132741;27;20276;-77
2020/12/25 13:10:13;;;;;;;;;;;17.60;99.90;;;;;;5134141;27;19999;-82
2020/12/25 13:12:43;;;;;;;;;;;17.50;99.90;;;;;;5132630;27;20205;-78
2020/12/25 13:15:10;;;;;;;;;;;17.60;99.90;;;;;;5133677;27;19911;-78
2020/12/25 13:17:36;;;;;;;;;;;17.60;99.90;;;;;;5133121;27;19915;-78
2020/12/25 13:20:03;;;;;;;;;;;17.60;99.90;;;;;;5133574;27;19915;-78
2020/12/25 13:22:32;;;;;;;;;;;17.60;99.90;;;;;;5133798;27;20366;-78
2020/12/25 13:24:59;;;;;;;;;;;17.60;99.90;;;;;;5133683;27;19915;-78
2020/12/25 13:27:25;;;;;;;;;;;17.60;99.90;;;;;;5132853;27;20299;-78
2020/12/25 13:29:52;;;;;;;;;;;17.70;99.90;;;;;;5133029;27;19952;-77
2020/12/25 13:32:19;;;;;;;;;;;17.70;99.90;;;;;;5133833;27;20357;-78
2020/12/25 13:34:46;;;;;;;;;;;17.70;99.90;;;;;;5134348;27;19915;-79
2020/12/25 13:37:12;;;;;;;;;;;17.70;99.90;;;;;;5133579;27;19915;-79
2020/12/25 13:39:39;;;;;;;;;;;17.70;99.90;;;;;;5134319;27;19919;-78
2020/12/25 13:42:05;;;;;;;;;;;17.70;99.90;;;;;;5133956;27;20044;-78
2020/12/25 13:44:32;;;;;;;;;;;17.70;99.90;;;;;;5134155;27;19907;-78
2020/12/25 13:46:59;;;;;;;;;;;17.80;99.90;;;;;;5115299;27;19911;-78
2020/12/25 13:49:25;;;;;;;;;;;17.80;99.90;;;;;;5132769;27;19912;-76
2020/12/25 13:51:53;;;;;;;;;;;17.80;99.90;;;;;;5133892;27;19919;-79
2020/12/25 13:54:19;;;;;;;;;;;17.80;99.90;;;;;;5133714;27;19915;-77
2020/12/25 13:56:46;;;;;;;;;;;17.80;99.90;;;;;;5133142;27;20392;-77
2020/12/25 13:59:13;;;;;;;;;;;17.80;99.90;;;;;;5133758;27;19922;-78
2020/12/25 14:01:40;;;;;;;;;;;17.80;99.90;;;;;;5133859;27;19907;-76
2020/12/25 14:04:06;;;;;;;;;;;17.90;99.90;;;;;;5134101;27;19938;-78
2020/12/25 14:06:33;;;;;;;;;;;17.80;99.90;;;;;;5113391;28;19921;-78
2020/12/25 14:09:00;;;;;;;;;;;17.80;99.90;;;;;;5113429;28;20278;-79
2020/12/25 14:11:26;;;;;;;;;;;17.90;99.90;;;;;;5113078;28;19907;-77
2020/12/25 14:13:53;;;;;;;;;;;17.90;99.90;;;;;;5112539;28;20270;-79
2020/12/25 14:16:20;;;;;;;;;;;18.00;99.90;;;;;;5113564;28;19908;-77
2020/12/25 14:18:46;;;;;;;;;;;18.00;99.90;;;;;;5117404;28;19912;-80